Pagrindinis puslapis
METAR-TAF:

METAR-TAF

Oro uostai :

Jakutskas, Rusija

platuma: 62-01N, ilguma: 129-43E, Aukštis: 103 m

Dabartinis oras

Ataskaita buvo paskelbta 37 minutes, ne 22:00 UTC
Vėjas 4 kt iš Vakarų/Šiaurės Vakarų
Temperatūra -28°C
Drėgmė 68%
Slėgis 1024 hPa
Matomumas: 5000 m
sniegas

METAR: UEEE 252200Z 29002MPS 5000 -SN NSC M28/M32 Q1024 R23L/490143 NOSIG RMK QFE759

Laikas: 07:37 (22:37 UTC)

Prognozė

Ataskaita buvo paskelbta 2 valandos ir 37 minutes, ne 20:00 UTC
Prognozė galioja nuo 25 metu 21 UTC su 27 metu 03 UTC
Vėjas 2 kt nuo kintamojo kryptimis
Matomumas: 5000 m
sniegas
Laikinai
nuo 25 metu 21 UTC su 26 metu 03 UTC
Matomumas: 2100 m
Išsisklaidę debesys ne aukštis 1700 ft
Apsiniaukę ne aukštis 7000 ft
sniegas, rūkana

TAF: UEEE 252000Z 2521/2703 VRB01MPS 5000 -SN NSC TEMPO 2521/2603 2100 -SN BR SCT017 OVC070

Orai ataskaitas ir orų prognozės (METAR, TAF).

turimą stotys yra geltonos ir raudonos taškus žemėlapyje.

Perkelti pele per norėdami pamatyti stoties vardą.

Tada spustelėkite, norėdami matyti oro stebėjimo ir prognozės.

Norėdami pakeisti žemėlapį: spustelėkite ant žalios mygtukų su juodo kryžiaus žemyn,; žalią mygtuką su brūkšneliu, jei norite nutolinti; arba žalių rodyklių gretimoms žemėlapius.


METAR-TAF: